sensor_id;sensor_type;location;lat;lon;timestamp;pressure;altitude;pressure_sealevel;temperature;humidity
55486;BME280;49383;-25.924;28.194;2023-01-24T00:00:31;85030.05;;;19.73;51.78
55486;BME280;49383;-25.924;28.194;2023-01-24T00:02:55;85026.47;;;19.20;47.54
55486;BME280;49383;-25.924;28.194;2023-01-24T00:05:21;85027.08;;;19.24;47.54
55486;BME280;49383;-25.924;28.194;2023-01-24T00:07:46;85027.56;;;19.29;50.53
55486;BME280;49383;-25.924;28.194;2023-01-24T00:10:12;85023.41;;;19.42;51.70
55486;BME280;49383;-25.924;28.194;2023-01-24T00:12:36;85021.11;;;19.41;50.07
55486;BME280;49383;-25.924;28.194;2023-01-24T00:15:01;85016.96;;;19.72;46.91
55486;BME280;49383;-25.924;28.194;2023-01-24T00:17:26;85016.03;;;19.60;47.24
55486;BME280;49383;-25.924;28.194;2023-01-24T00:19:51;85014.62;;;19.64;47.13
55486;BME280;49383;-25.924;28.194;2023-01-24T00:22:17;85014.38;;;19.47;47.27
55486;BME280;49383;-25.924;28.194;2023-01-24T00:24:42;85015.24;;;19.56;46.93
55486;BME280;49383;-25.924;28.194;2023-01-24T00:27:07;85018.54;;;19.58;46.80
55486;BME280;49383;-25.924;28.194;2023-01-24T00:29:32;85020.31;;;19.59;46.66
55486;BME280;49383;-25.924;28.194;2023-01-24T00:31:57;85019.79;;;19.56;46.58
55486;BME280;49383;-25.924;28.194;2023-01-24T00:34:22;85017.26;;;19.22;46.75
55486;BME280;49383;-25.924;28.194;2023-01-24T00:36:47;85011.66;;;19.58;46.30
55486;BME280;49383;-25.924;28.194;2023-01-24T00:39:12;85007.18;;;19.50;46.28
55486;BME280;49383;-25.924;28.194;2023-01-24T00:41:37;85005.94;;;19.40;46.38
55486;BME280;49383;-25.924;28.194;2023-01-24T00:44:02;85003.27;;;18.94;46.21
55486;BME280;49383;-25.924;28.194;2023-01-24T00:46:28;85004.42;;;19.24;46.09
55486;BME280;49383;-25.924;28.194;2023-01-24T00:48:53;85002.03;;;19.35;46.17
55486;BME280;49383;-25.924;28.194;2023-01-24T00:51:18;85002.14;;;19.31;46.19
55486;BME280;49383;-25.924;28.194;2023-01-24T00:53:43;85003.75;;;19.23;46.21
55486;BME280;49383;-25.924;28.194;2023-01-24T00:56:08;85004.44;;;19.33;48.19
55486;BME280;49383;-25.924;28.194;2023-01-24T00:58:33;85005.17;;;19.47;49.79
55486;BME280;49383;-25.924;28.194;2023-01-24T01:00:58;85003.97;;;19.64;50.40
55486;BME280;49383;-25.924;28.194;2023-01-24T01:03:23;85002.49;;;19.62;48.38
55486;BME280;49383;-25.924;28.194;2023-01-24T01:05:48;84998.13;;;19.09;46.22
55486;BME280;49383;-25.924;28.194;2023-01-24T01:08:14;84997.16;;;19.24;48.34
55486;BME280;49383;-25.924;28.194;2023-01-24T01:10:40;84994.51;;;19.55;50.55
55486;BME280;49383;-25.924;28.194;2023-01-24T01:13:04;84993.83;;;19.52;51.54
55486;BME280;49383;-25.924;28.194;2023-01-24T01:15:29;84992.75;;;19.58;48.19
55486;BME280;49383;-25.924;28.194;2023-01-24T01:17:54;84990.40;;;19.75;45.98
55486;BME280;49383;-25.924;28.194;2023-01-24T01:20:19;84988.36;;;19.51;49.53
55486;BME280;49383;-25.924;28.194;2023-01-24T01:22:44;84986.38;;;19.83;51.05
55486;BME280;49383;-25.924;28.194;2023-01-24T01:25:10;84985.80;;;19.41;51.36
55486;BME280;49383;-25.924;28.194;2023-01-24T01:27:34;84984.49;;;19.59;46.91
55486;BME280;49383;-25.924;28.194;2023-01-24T01:30:00;84984.32;;;19.61;46.97
55486;BME280;49383;-25.924;28.194;2023-01-24T01:32:25;84983.62;;;19.42;47.16
55486;BME280;49383;-25.924;28.194;2023-01-24T01:34:50;84982.14;;;19.59;47.12
55486;BME280;49383;-25.924;28.194;2023-01-24T01:37:15;84986.89;;;19.20;47.23
55486;BME280;49383;-25.924;28.194;2023-01-24T01:39:40;84987.67;;;19.30;46.84
55486;BME280;49383;-25.924;28.194;2023-01-24T01:42:05;84989.38;;;18.95;47.88
55486;BME280;49383;-25.924;28.194;2023-01-24T01:44:32;84990.49;;;19.48;49.70
55486;BME280;49383;-25.924;28.194;2023-01-24T01:46:55;84991.30;;;19.54;50.52
55486;BME280;49383;-25.924;28.194;2023-01-24T01:49:23;84991.66;;;19.41;51.05
55486;BME280;49383;-25.924;28.194;2023-01-24T01:51:48;84993.36;;;19.98;46.10
55486;BME280;49383;-25.924;28.194;2023-01-24T01:54:15;84993.75;;;19.80;48.00
55486;BME280;49383;-25.924;28.194;2023-01-24T01:56:41;84996.00;;;19.75;49.92
55486;BME280;49383;-25.924;28.194;2023-01-24T01:59:05;84994.49;;;19.84;51.01
55486;BME280;49383;-25.924;28.194;2023-01-24T02:01:27;84992.65;;;19.82;49.82
55486;BME280;49383;-25.924;28.194;2023-01-24T02:03:57;84995.29;;;19.78;46.11
55486;BME280;49383;-25.924;28.194;2023-01-24T02:06:29;84997.40;;;19.69;49.36
55486;BME280;49383;-25.924;28.194;2023-01-24T02:08:42;84999.23;;;19.71;51.04
55486;BME280;49383;-25.924;28.194;2023-01-24T02:11:07;84995.77;;;19.39;52.06
55486;BME280;49383;-25.924;28.194;2023-01-24T02:13:32;84993.99;;;19.88;48.32
55486;BME280;49383;-25.924;28.194;2023-01-24T02:15:57;84991.27;;;19.75;46.36
55486;BME280;49383;-25.924;28.194;2023-01-24T02:18:22;84993.97;;;19.75;49.77
55486;BME280;49383;-25.924;28.194;2023-01-24T02:20:48;84994.16;;;19.39;51.20
55486;BME280;49383;-25.924;28.194;2023-01-24T02:23:19;84993.39;;;19.62;50.98
55486;BME280;49383;-25.924;28.194;2023-01-24T02:25:42;84993.07;;;19.69;46.63
55486;BME280;49383;-25.924;28.194;2023-01-24T02:28:03;84992.20;;;19.59;47.42
55486;BME280;49383;-25.924;28.194;2023-01-24T02:30:28;84994.85;;;19.40;47.50
55486;BME280;49383;-25.924;28.194;2023-01-24T02:32:52;84995.51;;;19.32;47.39
55486;BME280;49383;-25.924;28.194;2023-01-24T02:35:25;84995.85;;;19.25;47.28
55486;BME280;49383;-25.924;28.194;2023-01-24T02:37:43;84994.70;;;19.37;48.76
55486;BME280;49383;-25.924;28.194;2023-01-24T02:40:10;84996.17;;;19.50;50.71
55486;BME280;49383;-25.924;28.194;2023-01-24T02:42:35;84998.30;;;19.97;51.46
55486;BME280;49383;-25.924;28.194;2023-01-24T02:45:02;84996.99;;;19.74;49.66
55486;BME280;49383;-25.924;28.194;2023-01-24T02:47:24;84996.94;;;19.88;46.34
55486;BME280;49383;-25.924;28.194;2023-01-24T02:49:48;84997.60;;;19.40;48.51
55486;BME280;49383;-25.924;28.194;2023-01-24T02:52:13;84999.20;;;19.59;50.85
55486;BME280;49383;-25.924;28.194;2023-01-24T02:54:39;85000.36;;;19.30;51.69
55486;BME280;49383;-25.924;28.194;2023-01-24T02:57:04;84996.17;;;19.83;49.98
55486;BME280;49383;-25.924;28.194;2023-01-24T02:59:29;84996.84;;;19.74;47.10
55486;BME280;49383;-25.924;28.194;2023-01-24T03:01:54;84995.72;;;19.61;49.78
55486;BME280;49383;-25.924;28.194;2023-01-24T03:04:19;84999.31;;;19.28;51.35
55486;BME280;49383;-25.924;28.194;2023-01-24T03:06:44;85000.49;;;19.85;52.33
55486;BME280;49383;-25.924;28.194;2023-01-24T03:09:09;85003.14;;;19.78;48.98
55486;BME280;49383;-25.924;28.194;2023-01-24T03:11:34;85002.01;;;19.45;47.14
55486;BME280;49383;-25.924;28.194;2023-01-24T03:13:59;85002.23;;;19.51;50.52
55486;BME280;49383;-25.924;28.194;2023-01-24T03:16:25;85003.95;;;19.40;52.32
55486;BME280;49383;-25.924;28.194;2023-01-24T03:18:50;85005.76;;;19.65;53.00
55486;BME280;49383;-25.924;28.194;2023-01-24T03:21:15;85005.76;;;19.75;48.60
55486;BME280;49383;-25.924;28.194;2023-01-24T03:23:40;85008.82;;;19.68;47.68
55486;BME280;49383;-25.924;28.194;2023-01-24T03:26:05;85012.31;;;19.13;50.65
55486;BME280;49383;-25.924;28.194;2023-01-24T03:28:30;85013.44;;;19.21;50.86
55486;BME280;49383;-25.924;28.194;2023-01-24T03:30:55;85011.50;;;19.53;45.03
55486;BME280;49383;-25.924;28.194;2023-01-24T03:33:21;85017.28;;;19.53;45.70
55486;BME280;49383;-25.924;28.194;2023-01-24T03:35:48;85020.78;;;19.70;48.17
55486;BME280;49383;-25.924;28.194;2023-01-24T03:38:12;85027.09;;;19.63;50.29
55486;BME280;49383;-25.924;28.194;2023-01-24T03:40:38;85032.14;;;19.31;51.84
55486;BME280;49383;-25.924;28.194;2023-01-24T03:43:04;85037.28;;;19.46;48.54
55486;BME280;49383;-25.924;28.194;2023-01-24T03:45:31;85035.02;;;19.48;46.58
55486;BME280;49383;-25.924;28.194;2023-01-24T03:47:56;85039.38;;;19.31;49.75
55486;BME280;49383;-25.924;28.194;2023-01-24T03:50:20;85044.90;;;19.78;51.07
55486;BME280;49383;-25.924;28.194;2023-01-24T03:52:45;85044.80;;;19.62;52.06
55486;BME280;49383;-25.924;28.194;2023-01-24T03:55:10;85045.67;;;19.61;47.68
55486;BME280;49383;-25.924;28.194;2023-01-24T03:57:35;85052.29;;;19.44;47.38
55486;BME280;49383;-25.924;28.194;2023-01-24T04:00:00;85051.96;;;19.34;50.11
55486;BME280;49383;-25.924;28.194;2023-01-24T04:02:25;85055.79;;;19.57;51.62
55486;BME280;49383;-25.924;28.194;2023-01-24T04:04:51;85056.81;;;19.38;52.03
55486;BME280;49383;-25.924;28.194;2023-01-24T04:07:17;85057.08;;;19.35;47.17
55486;BME280;49383;-25.924;28.194;2023-01-24T04:09:41;85063.84;;;19.24;47.53
55486;BME280;49383;-25.924;28.194;2023-01-24T04:12:07;85066.63;;;19.55;50.38
55486;BME280;49383;-25.924;28.194;2023-01-24T04:14:33;85068.00;;;19.39;51.62
55486;BME280;49383;-25.924;28.194;2023-01-24T04:16:58;85068.04;;;19.47;51.85
55486;BME280;49383;-25.924;28.194;2023-01-24T04:19:24;85069.66;;;19.38;47.47
55486;BME280;49383;-25.924;28.194;2023-01-24T04:21:49;85070.75;;;19.26;50.05
55486;BME280;49383;-25.924;28.194;2023-01-24T04:24:14;85070.81;;;19.08;52.18
55486;BME280;49383;-25.924;28.194;2023-01-24T04:26:39;85071.60;;;19.57;52.98
55486;BME280;49383;-25.924;28.194;2023-01-24T04:29:04;85071.48;;;19.37;48.34
55486;BME280;49383;-25.924;28.194;2023-01-24T04:31:30;85075.49;;;19.38;48.79
55486;BME280;49383;-25.924;28.194;2023-01-24T04:33:55;85076.15;;;19.37;51.11
55486;BME280;49383;-25.924;28.194;2023-01-24T04:36:20;85072.98;;;19.49;52.56
55486;BME280;49383;-25.924;28.194;2023-01-24T04:38:45;85075.51;;;19.50;48.44
55486;BME280;49383;-25.924;28.194;2023-01-24T04:41:10;85073.34;;;19.20;47.23
55486;BME280;49383;-25.924;28.194;2023-01-24T04:43:35;85070.37;;;19.59;46.68
55486;BME280;49383;-25.924;28.194;2023-01-24T04:46:01;85071.52;;;19.82;44.58
55486;BME280;49383;-25.924;28.194;2023-01-24T04:48:27;85076.86;;;19.74;44.02
55486;BME280;49383;-25.924;28.194;2023-01-24T04:50:52;85078.14;;;19.31;45.33
55486;BME280;49383;-25.924;28.194;2023-01-24T04:53:17;85084.25;;;19.58;45.88
55486;BME280;49383;-25.924;28.194;2023-01-24T04:55:43;85086.63;;;19.36;46.21
55486;BME280;49383;-25.924;28.194;2023-01-24T04:58:08;85089.93;;;19.49;46.31
55486;BME280;49383;-25.924;28.194;2023-01-24T05:00:33;85090.05;;;19.83;46.27
55486;BME280;49383;-25.924;28.194;2023-01-24T05:02:58;85086.66;;;19.71;46.20
55486;BME280;49383;-25.924;28.194;2023-01-24T05:05:24;85085.59;;;19.88;46.47
55486;BME280;49383;-25.924;28.194;2023-01-24T05:07:49;85082.74;;;19.45;46.43
55486;BME280;49383;-25.924;28.194;2023-01-24T05:10:16;85083.78;;;19.80;46.35
55486;BME280;49383;-25.924;28.194;2023-01-24T05:12:40;85085.49;;;19.99;46.55
55486;BME280;49383;-25.924;28.194;2023-01-24T05:15:07;85086.08;;;19.52;46.74
55486;BME280;49383;-25.924;28.194;2023-01-24T05:17:32;85089.81;;;19.54;47.33
55486;BME280;49383;-25.924;28.194;2023-01-24T05:19:57;85083.35;;;19.86;47.37
55486;BME280;49383;-25.924;28.194;2023-01-24T05:22:22;85082.84;;;19.38;47.48
55486;BME280;49383;-25.924;28.194;2023-01-24T05:24:48;85084.74;;;19.86;47.61
55486;BME280;49383;-25.924;28.194;2023-01-24T05:27:14;85092.72;;;19.59;47.72
55486;BME280;49383;-25.924;28.194;2023-01-24T05:29:39;85095.08;;;19.62;46.46
55486;BME280;49383;-25.924;28.194;2023-01-24T05:32:04;85087.02;;;19.47;46.80
55486;BME280;49383;-25.924;28.194;2023-01-24T05:34:29;85083.87;;;20.00;47.08
55486;BME280;49383;-25.924;28.194;2023-01-24T05:36:54;85083.27;;;20.09;46.70
55486;BME280;49383;-25.924;28.194;2023-01-24T05:39:19;85084.45;;;20.00;46.89
55486;BME280;49383;-25.924;28.194;2023-01-24T05:41:45;85086.94;;;19.77;45.72
55486;BME280;49383;-25.924;28.194;2023-01-24T05:44:10;85084.96;;;19.75;45.31
55486;BME280;49383;-25.924;28.194;2023-01-24T05:46:35;85085.16;;;19.79;46.12
55486;BME280;49383;-25.924;28.194;2023-01-24T05:49:01;85082.19;;;20.21;46.09
55486;BME280;49383;-25.924;28.194;2023-01-24T05:51:26;85077.58;;;19.69;45.44
55486;BME280;49383;-25.924;28.194;2023-01-24T05:53:51;85080.61;;;20.30;45.42
55486;BME280;49383;-25.924;28.194;2023-01-24T05:56:17;85075.49;;;19.85;47.50
55486;BME280;49383;-25.924;28.194;2023-01-24T05:58:43;85077.27;;;20.03;47.43
55486;BME280;49383;-25.924;28.194;2023-01-24T06:01:08;85079.30;;;20.11;49.39
55486;BME280;49383;-25.924;28.194;2023-01-24T06:03:32;85079.33;;;20.24;49.08
55486;BME280;49383;-25.924;28.194;2023-01-24T06:05:57;85082.75;;;20.33;51.02
55486;BME280;49383;-25.924;28.194;2023-01-24T06:08:23;85084.33;;;20.46;51.52
55486;BME280;49383;-25.924;28.194;2023-01-24T06:10:48;85083.85;;;20.15;50.49
55486;BME280;49383;-25.924;28.194;2023-01-24T06:13:13;85078.86;;;20.88;51.57
55486;BME280;49383;-25.924;28.194;2023-01-24T06:15:39;85075.03;;;20.70;52.69
55486;BME280;49383;-25.924;28.194;2023-01-24T06:18:03;85077.66;;;20.56;53.23
55486;BME280;49383;-25.924;28.194;2023-01-24T06:20:29;85076.78;;;20.86;51.83
55486;BME280;49383;-25.924;28.194;2023-01-24T06:22:56;85074.14;;;20.46;51.80
55486;BME280;49383;-25.924;28.194;2023-01-24T06:25:23;85071.41;;;20.85;49.30
55486;BME280;49383;-25.924;28.194;2023-01-24T06:27:46;85071.19;;;20.79;48.37
55486;BME280;49383;-25.924;28.194;2023-01-24T06:30:13;85066.50;;;19.95;48.01
55486;BME280;49383;-25.924;28.194;2023-01-24T06:32:44;85067.10;;;20.24;45.51
55486;BME280;49383;-25.924;28.194;2023-01-24T06:35:11;85068.61;;;20.62;45.67
55486;BME280;49383;-25.924;28.194;2023-01-24T06:37:33;85069.00;;;20.95;45.82
55486;BME280;49383;-25.924;28.194;2023-01-24T06:39:54;85070.23;;;21.33;47.47
55486;BME280;49383;-25.924;28.194;2023-01-24T06:42:18;85068.04;;;21.08;49.13
55486;BME280;49383;-25.924;28.194;2023-01-24T06:44:43;85073.86;;;21.50;51.45
55486;BME280;49383;-25.924;28.194;2023-01-24T06:47:10;85075.62;;;21.04;52.33
55486;BME280;49383;-25.924;28.194;2023-01-24T06:49:34;85073.99;;;21.03;51.76
55486;BME280;49383;-25.924;28.194;2023-01-24T06:52:00;85068.34;;;21.14;49.80
55486;BME280;49383;-25.924;28.194;2023-01-24T06:54:25;85065.95;;;21.14;48.59
55486;BME280;49383;-25.924;28.194;2023-01-24T06:56:51;85060.90;;;21.16;47.14
55486;BME280;49383;-25.924;28.194;2023-01-24T06:59:16;85060.28;;;21.05;46.85
55486;BME280;49383;-25.924;28.194;2023-01-24T07:01:42;85060.57;;;21.04;46.15
55486;BME280;49383;-25.924;28.194;2023-01-24T07:04:07;85061.30;;;21.04;46.50
55486;BME280;49383;-25.924;28.194;2023-01-24T07:06:32;85062.69;;;20.95;47.10
55486;BME280;49383;-25.924;28.194;2023-01-24T07:08:57;85059.15;;;21.07;46.54
55486;BME280;49383;-25.924;28.194;2023-01-24T07:11:22;85060.12;;;21.22;46.36
55486;BME280;49383;-25.924;28.194;2023-01-24T07:13:47;85057.50;;;21.18;46.83
55486;BME280;49383;-25.924;28.194;2023-01-24T07:16:12;85059.00;;;21.17;45.87
55486;BME280;49383;-25.924;28.194;2023-01-24T07:18:38;85061.26;;;21.02;46.01
55486;BME280;49383;-25.924;28.194;2023-01-24T07:21:06;85062.03;;;21.21;45.53
55486;BME280;49383;-25.924;28.194;2023-01-24T07:23:28;85056.81;;;21.02;46.03
55486;BME280;49383;-25.924;28.194;2023-01-24T07:25:54;85059.75;;;21.05;46.59
55486;BME280;49383;-25.924;28.194;2023-01-24T07:28:19;85055.65;;;21.02;46.38
55486;BME280;49383;-25.924;28.194;2023-01-24T07:30:43;85060.11;;;20.98;45.21
55486;BME280;49383;-25.924;28.194;2023-01-24T07:33:08;85059.04;;;20.85;44.57
55486;BME280;49383;-25.924;28.194;2023-01-24T07:35:33;85059.85;;;20.87;44.63
55486;BME280;49383;-25.924;28.194;2023-01-24T07:37:58;85060.24;;;20.86;43.80
55486;BME280;49383;-25.924;28.194;2023-01-24T07:40:24;85055.37;;;20.74;43.33
55486;BME280;49383;-25.924;28.194;2023-01-24T07:42:49;85056.42;;;21.07;44.36
55486;BME280;49383;-25.924;28.194;2023-01-24T07:45:14;85051.82;;;20.95;44.84
55486;BME280;49383;-25.924;28.194;2023-01-24T07:47:39;85051.16;;;21.05;45.12
55486;BME280;49383;-25.924;28.194;2023-01-24T07:50:05;85042.84;;;21.13;45.31
55486;BME280;49383;-25.924;28.194;2023-01-24T07:52:29;85046.03;;;21.07;45.67
55486;BME280;49383;-25.924;28.194;2023-01-24T07:54:54;85040.91;;;20.99;46.07
55486;BME280;49383;-25.924;28.194;2023-01-24T07:57:19;85037.06;;;21.04;46.16
55486;BME280;49383;-25.924;28.194;2023-01-24T07:59:44;85035.80;;;20.87;46.59
55486;BME280;49383;-25.924;28.194;2023-01-24T08:02:10;85033.53;;;20.86;45.66
55486;BME280;49383;-25.924;28.194;2023-01-24T08:04:35;85030.49;;;20.96;45.74
55486;BME280;49383;-25.924;28.194;2023-01-24T08:07:00;85028.99;;;21.08;44.52
55486;BME280;49383;-25.924;28.194;2023-01-24T08:09:25;85023.55;;;21.02;45.39
55486;BME280;49383;-25.924;28.194;2023-01-24T08:11:50;85024.89;;;20.77;45.86
55486;BME280;49383;-25.924;28.194;2023-01-24T08:14:15;85020.67;;;20.96;46.10
55486;BME280;49383;-25.924;28.194;2023-01-24T08:16:40;85020.16;;;21.20;46.35
55486;BME280;49383;-25.924;28.194;2023-01-24T08:19:05;85024.46;;;20.88;46.60
55486;BME280;49383;-25.924;28.194;2023-01-24T08:21:30;85023.01;;;20.93;46.66
55486;BME280;49383;-25.924;28.194;2023-01-24T08:23:55;85027.45;;;20.92;46.83
55486;BME280;49383;-25.924;28.194;2023-01-24T08:26:20;85024.83;;;21.21;46.88
55486;BME280;49383;-25.924;28.194;2023-01-24T08:28:45;85024.97;;;21.00;46.83
55486;BME280;49383;-25.924;28.194;2023-01-24T08:31:10;85021.28;;;21.32;46.72
55486;BME280;49383;-25.924;28.194;2023-01-24T08:33:35;85014.52;;;21.44;45.39
55486;BME280;49383;-25.924;28.194;2023-01-24T08:36:01;85014.31;;;20.84;44.77
55486;BME280;49383;-25.924;28.194;2023-01-24T08:38:26;85013.09;;;21.05;45.69
55486;BME280;49383;-25.924;28.194;2023-01-24T08:40:51;85011.38;;;20.86;44.93
55486;BME280;49383;-25.924;28.194;2023-01-24T08:43:16;85005.66;;;20.99;44.55
55486;BME280;49383;-25.924;28.194;2023-01-24T08:45:41;85007.15;;;21.03;44.35
55486;BME280;49383;-25.924;28.194;2023-01-24T08:48:06;85007.05;;;20.81;45.06
55486;BME280;49383;-25.924;28.194;2023-01-24T08:50:32;85008.14;;;21.11;45.39
55486;BME280;49383;-25.924;28.194;2023-01-24T08:52:57;85003.94;;;20.84;44.57
55486;BME280;49383;-25.924;28.194;2023-01-24T08:55:22;85000.01;;;20.79;44.97
55486;BME280;49383;-25.924;28.194;2023-01-24T08:57:46;84999.79;;;21.06;43.93
55486;BME280;49383;-25.924;28.194;2023-01-24T09:00:13;85002.02;;;20.92;44.69
55486;BME280;49383;-25.924;28.194;2023-01-24T09:02:37;85002.58;;;21.28;44.91
55486;BME280;49383;-25.924;28.194;2023-01-24T09:05:02;85000.87;;;21.49;45.25
55486;BME280;49383;-25.924;28.194;2023-01-24T09:07:27;85000.12;;;20.94;45.56
55486;BME280;49383;-25.924;28.194;2023-01-24T09:09:52;85000.47;;;21.19;45.75
55486;BME280;49383;-25.924;28.194;2023-01-24T09:12:18;84996.07;;;21.05;46.24
55486;BME280;49383;-25.924;28.194;2023-01-24T09:14:43;84989.50;;;21.11;46.23
55486;BME280;49383;-25.924;28.194;2023-01-24T09:17:08;84988.45;;;21.31;46.45
55486;BME280;49383;-25.924;28.194;2023-01-24T09:19:33;84986.50;;;20.89;46.43
55486;BME280;49383;-25.924;28.194;2023-01-24T09:21:58;84986.40;;;20.82;46.69
55486;BME280;49383;-25.924;28.194;2023-01-24T09:24:23;84985.22;;;20.78;46.85
55486;BME280;49383;-25.924;28.194;2023-01-24T09:26:48;84987.99;;;21.04;46.94
55486;BME280;49383;-25.924;28.194;2023-01-24T09:29:13;84985.09;;;21.01;47.06
55486;BME280;49383;-25.924;28.194;2023-01-24T09:31:38;84980.57;;;20.66;47.26
55486;BME280;49383;-25.924;28.194;2023-01-24T09:34:03;84980.78;;;20.91;47.37
55486;BME280;49383;-25.924;28.194;2023-01-24T09:36:28;84978.90;;;20.86;47.45
55486;BME280;49383;-25.924;28.194;2023-01-24T09:38:54;84977.42;;;20.89;47.38
55486;BME280;49383;-25.924;28.194;2023-01-24T09:41:26;84976.42;;;21.15;47.31
55486;BME280;49383;-25.924;28.194;2023-01-24T09:43:47;84972.39;;;20.99;47.33
55486;BME280;49383;-25.924;28.194;2023-01-24T09:46:20;84975.76;;;20.91;47.41
55486;BME280;49383;-25.924;28.194;2023-01-24T09:48:34;84972.66;;;20.87;47.51
55486;BME280;49383;-25.924;28.194;2023-01-24T09:51:03;84972.18;;;20.58;47.60
55486;BME280;49383;-25.924;28.194;2023-01-24T09:53:26;84969.13;;;20.65;47.83
55486;BME280;49383;-25.924;28.194;2023-01-24T09:55:50;84967.59;;;20.61;47.93
55486;BME280;49383;-25.924;28.194;2023-01-24T09:58:25;84960.23;;;20.50;48.16
55486;BME280;49383;-25.924;28.194;2023-01-24T10:00:40;84960.01;;;20.41;48.37
55486;BME280;49383;-25.924;28.194;2023-01-24T10:03:12;84956.26;;;20.73;48.70
55486;BME280;49383;-25.924;28.194;2023-01-24T10:05:37;84956.82;;;21.10;49.67
55486;BME280;49383;-25.924;28.194;2023-01-24T10:08:06;84955.51;;;20.99;45.73
55486;BME280;49383;-25.924;28.194;2023-01-24T10:10:31;84957.29;;;20.50;46.97
55486;BME280;49383;-25.924;28.194;2023-01-24T10:12:54;84952.08;;;20.59;47.76
55486;BME280;49383;-25.924;28.194;2023-01-24T10:15:22;84950.53;;;20.34;46.90
55486;BME280;49383;-25.924;28.194;2023-01-24T10:17:47;84947.26;;;20.23;47.49
55486;BME280;49383;-25.924;28.194;2023-01-24T10:22:40;84949.65;;;20.11;48.09
55486;BME280;49383;-25.924;28.194;2023-01-24T10:24:59;84951.22;;;20.08;48.28
55486;BME280;49383;-25.924;28.194;2023-01-24T10:27:21;84952.62;;;20.29;47.39
55486;BME280;49383;-25.924;28.194;2023-01-24T10:29:44;84951.49;;;20.51;47.63
55486;BME280;49383;-25.924;28.194;2023-01-24T10:32:12;84949.86;;;20.38;48.24
55486;BME280;49383;-25.924;28.194;2023-01-24T10:34:36;84948.55;;;20.33;48.51
55486;BME280;49383;-25.924;28.194;2023-01-24T10:37:00;84944.71;;;19.96;48.41
55486;BME280;49383;-25.924;28.194;2023-01-24T10:39:23;84943.81;;;20.20;48.59
55486;BME280;49383;-25.924;28.194;2023-01-24T10:41:48;84943.03;;;20.29;48.89
55486;BME280;49383;-25.924;28.194;2023-01-24T10:44:15;84937.24;;;20.29;48.97
55486;BME280;49383;-25.924;28.194;2023-01-24T10:46:46;84940.51;;;19.81;48.94
55486;BME280;49383;-25.924;28.194;2023-01-24T10:49:04;84935.38;;;19.94;49.27
55486;BME280;49383;-25.924;28.194;2023-01-24T10:51:28;84935.06;;;20.09;49.08
55486;BME280;49383;-25.924;28.194;2023-01-24T10:53:56;84933.06;;;19.93;49.39
55486;BME280;49383;-25.924;28.194;2023-01-24T10:56:20;84931.49;;;20.15;49.47
55486;BME280;49383;-25.924;28.194;2023-01-24T11:01:16;84927.91;;;20.12;49.53
55486;BME280;49383;-25.924;28.194;2023-01-24T11:03:37;84927.81;;;20.20;49.37
55486;BME280;49383;-25.924;28.194;2023-01-24T11:05:59;84921.04;;;20.27;49.12
55486;BME280;49383;-25.924;28.194;2023-01-24T11:08:26;84920.26;;;19.92;49.39
55486;BME280;49383;-25.924;28.194;2023-01-24T11:10:52;84918.65;;;20.06;49.56
55486;BME280;49383;-25.924;28.194;2023-01-24T11:13:26;84915.11;;;19.91;49.44
55486;BME280;49383;-25.924;28.194;2023-01-24T11:15:39;84912.23;;;20.15;49.40
55486;BME280;49383;-25.924;28.194;2023-01-24T11:18:13;84906.34;;;19.90;49.52
55486;BME280;49383;-25.924;28.194;2023-01-24T11:20:31;84902.98;;;20.20;49.39
55486;BME280;49383;-25.924;28.194;2023-01-24T11:23:03;84895.15;;;20.12;49.55
55486;BME280;49383;-25.924;28.194;2023-01-24T11:25:20;84895.59;;;20.20;49.40
55486;BME280;49383;-25.924;28.194;2023-01-24T11:27:47;84891.41;;;20.06;49.24
55486;BME280;49383;-25.924;28.194;2023-01-24T11:30:16;84891.43;;;20.09;49.17
55486;BME280;49383;-25.924;28.194;2023-01-24T11:32:40;84887.13;;;19.65;49.45
55486;BME280;49383;-25.924;28.194;2023-01-24T11:35:04;84886.22;;;20.09;49.20
55486;BME280;49383;-25.924;28.194;2023-01-24T11:37:41;84880.95;;;20.13;49.09
55486;BME280;49383;-25.924;28.194;2023-01-24T11:39:55;84881.31;;;20.17;49.37
55486;BME280;49383;-25.924;28.194;2023-01-24T11:42:20;84875.84;;;19.97;49.21
55486;BME280;49383;-25.924;28.194;2023-01-24T11:44:54;84870.68;;;19.69;49.30
55486;BME280;49383;-25.924;28.194;2023-01-24T11:47:10;84867.43;;;19.84;49.70
55486;BME280;49383;-25.924;28.194;2023-01-24T11:49:44;84867.19;;;20.19;49.60
55486;BME280;49383;-25.924;28.194;2023-01-24T11:52:01;84864.12;;;19.73;50.12
55486;BME280;49383;-25.924;28.194;2023-01-24T11:54:32;84858.56;;;20.02;50.06
55486;BME280;49383;-25.924;28.194;2023-01-24T11:56:52;84852.98;;;19.79;50.16
55486;BME280;49383;-25.924;28.194;2023-01-24T12:01:44;84845.85;;;20.19;49.92
55486;BME280;49383;-25.924;28.194;2023-01-24T12:06:34;84841.48;;;20.05;49.83
55486;BME280;49383;-25.924;28.194;2023-01-24T12:09:03;84836.72;;;19.66;50.07
55486;BME280;49383;-25.924;28.194;2023-01-24T12:11:22;84834.15;;;20.04;50.34
55486;BME280;49383;-25.924;28.194;2023-01-24T12:13:46;84830.88;;;20.19;50.12
55486;BME280;49383;-25.924;28.194;2023-01-24T12:16:18;84828.52;;;20.15;50.27
55486;BME280;49383;-25.924;28.194;2023-01-24T12:18:42;84827.07;;;20.10;50.36
55486;BME280;49383;-25.924;28.194;2023-01-24T12:20:59;84823.77;;;19.78;50.61
55486;BME280;49383;-25.924;28.194;2023-01-24T12:23:26;84824.32;;;19.68;50.42
55486;BME280;49383;-25.924;28.194;2023-01-24T12:25:50;84821.66;;;19.90;50.47
55486;BME280;49383;-25.924;28.194;2023-01-24T12:28:16;84821.52;;;19.95;50.43
55486;BME280;49383;-25.924;28.194;2023-01-24T12:30:41;84819.70;;;19.79;50.21
55486;BME280;49383;-25.924;28.194;2023-01-24T12:33:10;84814.66;;;20.26;50.20
55486;BME280;49383;-25.924;28.194;2023-01-24T12:35:32;84813.84;;;20.00;50.21
55486;BME280;49383;-25.924;28.194;2023-01-24T12:38:03;84811.18;;;20.01;50.48